sensor_id;sensor_type;location;lat;lon;timestamp;temperature;humidity
4813;DHT22;2420;51.202;8.698;2023-04-30T00:00:48;5.20;1.00
4813;DHT22;2420;51.202;8.698;2023-04-30T00:03:13;5.70;1.00
4813;DHT22;2420;51.202;8.698;2023-04-30T00:05:39;5.60;1.00
4813;DHT22;2420;51.202;8.698;2023-04-30T00:08:05;5.50;1.00
4813;DHT22;2420;51.202;8.698;2023-04-30T00:10:30;5.40;1.00
4813;DHT22;2420;51.202;8.698;2023-04-30T00:12:56;5.50;1.00
4813;DHT22;2420;51.202;8.698;2023-04-30T00:15:22;5.60;1.00
4813;DHT22;2420;51.202;8.698;2023-04-30T00:17:47;5.60;1.00
4813;DHT22;2420;51.202;8.698;2023-04-30T00:20:13;5.50;1.00
4813;DHT22;2420;51.202;8.698;2023-04-30T00:22:39;5.50;1.00
4813;DHT22;2420;51.202;8.698;2023-04-30T00:25:05;5.50;1.00
4813;DHT22;2420;51.202;8.698;2023-04-30T00:27:30;5.50;1.00
4813;DHT22;2420;51.202;8.698;2023-04-30T00:29:57;5.40;1.00
4813;DHT22;2420;51.202;8.698;2023-04-30T00:32:22;5.40;1.00
4813;DHT22;2420;51.202;8.698;2023-04-30T00:34:48;5.60;1.00
4813;DHT22;2420;51.202;8.698;2023-04-30T00:37:13;5.50;1.00
4813;DHT22;2420;51.202;8.698;2023-04-30T00:39:39;5.50;1.00
4813;DHT22;2420;51.202;8.698;2023-04-30T00:42:04;5.40;1.00
4813;DHT22;2420;51.202;8.698;2023-04-30T00:44:30;5.60;1.00
4813;DHT22;2420;51.202;8.698;2023-04-30T00:46:56;5.20;1.00
4813;DHT22;2420;51.202;8.698;2023-04-30T00:49:21;5.30;1.00
4813;DHT22;2420;51.202;8.698;2023-04-30T00:51:47;5.30;1.00
4813;DHT22;2420;51.202;8.698;2023-04-30T00:54:13;5.00;1.00
4813;DHT22;2420;51.202;8.698;2023-04-30T00:56:39;5.00;1.00
4813;DHT22;2420;51.202;8.698;2023-04-30T00:59:05;5.00;1.00
4813;DHT22;2420;51.202;8.698;2023-04-30T01:01:32;4.80;1.00
4813;DHT22;2420;51.202;8.698;2023-04-30T01:03:57;4.90;1.00
4813;DHT22;2420;51.202;8.698;2023-04-30T01:06:25;4.80;1.00
4813;DHT22;2420;51.202;8.698;2023-04-30T01:08:51;4.80;1.00
4813;DHT22;2420;51.202;8.698;2023-04-30T01:14:27;4.80;1.00
4813;DHT22;2420;51.202;8.698;2023-04-30T01:17:16;4.90;1.00
4813;DHT22;2420;51.202;8.698;2023-04-30T01:19:45;4.70;1.00
4813;DHT22;2420;51.202;8.698;2023-04-30T01:25:11;4.70;1.00
4813;DHT22;2420;51.202;8.698;2023-04-30T01:28:00;4.80;1.00
4813;DHT22;2420;51.202;8.698;2023-04-30T01:30:30;4.60;1.00
4813;DHT22;2420;51.202;8.698;2023-04-30T01:32:56;4.60;1.00
4813;DHT22;2420;51.202;8.698;2023-04-30T01:36:11;4.80;1.00
4813;DHT22;2420;51.202;8.698;2023-04-30T01:38:46;4.70;1.00
4813;DHT22;2420;51.202;8.698;2023-04-30T01:44:13;4.90;1.00
4813;DHT22;2420;51.202;8.698;2023-04-30T01:46:41;4.80;1.00
4813;DHT22;2420;51.202;8.698;2023-04-30T01:49:26;4.80;1.00
4813;DHT22;2420;51.202;8.698;2023-04-30T01:52:03;4.80;1.00
4813;DHT22;2420;51.202;8.698;2023-04-30T01:54:40;4.80;1.00
4813;DHT22;2420;51.202;8.698;2023-04-30T01:57:17;4.80;1.00
4813;DHT22;2420;51.202;8.698;2023-04-30T01:59:43;4.90;1.00
4813;DHT22;2420;51.202;8.698;2023-04-30T02:02:09;4.80;1.00
4813;DHT22;2420;51.202;8.698;2023-04-30T02:04:34;4.70;1.00
4813;DHT22;2420;51.202;8.698;2023-04-30T02:07:00;4.60;1.00
4813;DHT22;2420;51.202;8.698;2023-04-30T02:09:26;4.60;1.00
4813;DHT22;2420;51.202;8.698;2023-04-30T02:11:51;4.80;1.00
4813;DHT22;2420;51.202;8.698;2023-04-30T02:14:17;4.70;1.00
4813;DHT22;2420;51.202;8.698;2023-04-30T02:16:42;4.80;1.00
4813;DHT22;2420;51.202;8.698;2023-04-30T02:19:08;4.70;1.00
4813;DHT22;2420;51.202;8.698;2023-04-30T02:21:33;4.40;1.00
4813;DHT22;2420;51.202;8.698;2023-04-30T02:23:59;4.40;1.00
4813;DHT22;2420;51.202;8.698;2023-04-30T02:26:24;4.50;1.00
4813;DHT22;2420;51.202;8.698;2023-04-30T02:28:51;4.30;1.00
4813;DHT22;2420;51.202;8.698;2023-04-30T02:31:16;4.30;1.00
4813;DHT22;2420;51.202;8.698;2023-04-30T02:33:42;4.20;1.00
4813;DHT22;2420;51.202;8.698;2023-04-30T02:36:08;4.50;1.00
4813;DHT22;2420;51.202;8.698;2023-04-30T02:38:33;4.20;1.00
4813;DHT22;2420;51.202;8.698;2023-04-30T02:40:59;4.20;1.00
4813;DHT22;2420;51.202;8.698;2023-04-30T02:43:24;4.00;1.00
4813;DHT22;2420;51.202;8.698;2023-04-30T02:45:50;4.20;1.00
4813;DHT22;2420;51.202;8.698;2023-04-30T02:48:16;4.00;1.00
4813;DHT22;2420;51.202;8.698;2023-04-30T02:50:41;4.30;1.00
4813;DHT22;2420;51.202;8.698;2023-04-30T02:53:07;3.90;1.00
4813;DHT22;2420;51.202;8.698;2023-04-30T02:55:32;3.80;1.00
4813;DHT22;2420;51.202;8.698;2023-04-30T02:57:58;4.00;1.00
4813;DHT22;2420;51.202;8.698;2023-04-30T03:00:23;3.90;1.00
4813;DHT22;2420;51.202;8.698;2023-04-30T03:02:49;4.00;1.00
4813;DHT22;2420;51.202;8.698;2023-04-30T03:05:14;3.90;1.00
4813;DHT22;2420;51.202;8.698;2023-04-30T03:07:40;3.70;1.00
4813;DHT22;2420;51.202;8.698;2023-04-30T03:10:07;3.80;1.00
4813;DHT22;2420;51.202;8.698;2023-04-30T03:12:32;3.60;1.00
4813;DHT22;2420;51.202;8.698;2023-04-30T03:14:58;3.60;1.00
4813;DHT22;2420;51.202;8.698;2023-04-30T03:17:23;3.70;1.00
4813;DHT22;2420;51.202;8.698;2023-04-30T03:19:49;3.60;1.00
4813;DHT22;2420;51.202;8.698;2023-04-30T03:22:15;3.90;1.00
4813;DHT22;2420;51.202;8.698;2023-04-30T03:24:44;3.80;1.00
4813;DHT22;2420;51.202;8.698;2023-04-30T03:27:09;3.60;1.00
4813;DHT22;2420;51.202;8.698;2023-04-30T03:29:35;3.60;1.00
4813;DHT22;2420;51.202;8.698;2023-04-30T03:32:00;3.70;1.00
4813;DHT22;2420;51.202;8.698;2023-04-30T03:34:26;3.60;1.00
4813;DHT22;2420;51.202;8.698;2023-04-30T03:36:51;3.80;1.00
4813;DHT22;2420;51.202;8.698;2023-04-30T03:39:17;3.60;1.00
4813;DHT22;2420;51.202;8.698;2023-04-30T03:41:43;3.80;1.00
4813;DHT22;2420;51.202;8.698;2023-04-30T03:44:08;3.60;1.00
4813;DHT22;2420;51.202;8.698;2023-04-30T03:46:40;3.60;1.00
4813;DHT22;2420;51.202;8.698;2023-04-30T03:49:06;3.40;1.00
4813;DHT22;2420;51.202;8.698;2023-04-30T03:51:32;3.50;1.00
4813;DHT22;2420;51.202;8.698;2023-04-30T03:53:57;3.30;1.00
4813;DHT22;2420;51.202;8.698;2023-04-30T03:56:23;3.10;1.00
4813;DHT22;2420;51.202;8.698;2023-04-30T03:58:50;3.20;1.00
4813;DHT22;2420;51.202;8.698;2023-04-30T04:01:16;3.00;1.00
4813;DHT22;2420;51.202;8.698;2023-04-30T04:03:42;3.20;1.00
4813;DHT22;2420;51.202;8.698;2023-04-30T04:06:07;3.00;1.00
4813;DHT22;2420;51.202;8.698;2023-04-30T04:08:33;3.20;1.00
4813;DHT22;2420;51.202;8.698;2023-04-30T04:10:59;3.20;1.00
4813;DHT22;2420;51.202;8.698;2023-04-30T04:13:24;3.20;1.00
4813;DHT22;2420;51.202;8.698;2023-04-30T04:15:50;3.20;1.00
4813;DHT22;2420;51.202;8.698;2023-04-30T04:18:16;3.10;1.00
4813;DHT22;2420;51.202;8.698;2023-04-30T04:20:41;3.00;1.00
4813;DHT22;2420;51.202;8.698;2023-04-30T04:23:07;3.20;1.00
4813;DHT22;2420;51.202;8.698;2023-04-30T04:25:32;3.30;1.00
4813;DHT22;2420;51.202;8.698;2023-04-30T04:27:58;3.50;1.00
4813;DHT22;2420;51.202;8.698;2023-04-30T04:30:24;3.20;1.00
4813;DHT22;2420;51.202;8.698;2023-04-30T04:32:49;3.20;1.00
4813;DHT22;2420;51.202;8.698;2023-04-30T04:35:18;3.30;1.00
4813;DHT22;2420;51.202;8.698;2023-04-30T04:37:44;3.30;1.00
4813;DHT22;2420;51.202;8.698;2023-04-30T04:40:10;3.40;1.00
4813;DHT22;2420;51.202;8.698;2023-04-30T04:42:37;3.40;1.00
4813;DHT22;2420;51.202;8.698;2023-04-30T04:45:04;3.40;1.00
4813;DHT22;2420;51.202;8.698;2023-04-30T04:47:30;3.50;1.00
4813;DHT22;2420;51.202;8.698;2023-04-30T04:49:57;3.60;1.00
4813;DHT22;2420;51.202;8.698;2023-04-30T04:52:22;3.60;1.00
4813;DHT22;2420;51.202;8.698;2023-04-30T04:54:48;3.80;1.00
4813;DHT22;2420;51.202;8.698;2023-04-30T04:57:13;3.70;1.00
4813;DHT22;2420;51.202;8.698;2023-04-30T04:59:39;3.70;1.00
4813;DHT22;2420;51.202;8.698;2023-04-30T05:02:04;3.80;1.00
4813;DHT22;2420;51.202;8.698;2023-04-30T05:04:30;3.70;1.00
4813;DHT22;2420;51.202;8.698;2023-04-30T05:06:56;4.00;1.00
4813;DHT22;2420;51.202;8.698;2023-04-30T05:09:21;4.00;1.00
4813;DHT22;2420;51.202;8.698;2023-04-30T05:11:47;4.20;1.00
4813;DHT22;2420;51.202;8.698;2023-04-30T05:14:13;4.50;1.00
4813;DHT22;2420;51.202;8.698;2023-04-30T05:16:39;4.50;1.00
4813;DHT22;2420;51.202;8.698;2023-04-30T05:19:04;4.70;1.00
4813;DHT22;2420;51.202;8.698;2023-04-30T05:21:30;4.80;1.00
4813;DHT22;2420;51.202;8.698;2023-04-30T05:23:56;4.80;1.00
4813;DHT22;2420;51.202;8.698;2023-04-30T05:26:22;5.00;1.00
4813;DHT22;2420;51.202;8.698;2023-04-30T05:28:50;5.10;1.00
4813;DHT22;2420;51.202;8.698;2023-04-30T05:31:17;5.40;1.00
4813;DHT22;2420;51.202;8.698;2023-04-30T05:33:42;5.40;1.00
4813;DHT22;2420;51.202;8.698;2023-04-30T05:36:09;5.50;1.00
4813;DHT22;2420;51.202;8.698;2023-04-30T05:38:35;5.60;1.00
4813;DHT22;2420;51.202;8.698;2023-04-30T05:41:00;5.70;1.00
4813;DHT22;2420;51.202;8.698;2023-04-30T05:43:26;5.70;1.00
4813;DHT22;2420;51.202;8.698;2023-04-30T05:45:51;5.80;1.00
4813;DHT22;2420;51.202;8.698;2023-04-30T05:48:17;5.80;1.00
4813;DHT22;2420;51.202;8.698;2023-04-30T05:50:42;5.90;1.00
4813;DHT22;2420;51.202;8.698;2023-04-30T05:53:08;5.90;1.00
4813;DHT22;2420;51.202;8.698;2023-04-30T05:55:33;5.90;1.00
4813;DHT22;2420;51.202;8.698;2023-04-30T05:57:59;5.90;1.00
4813;DHT22;2420;51.202;8.698;2023-04-30T06:00:25;6.00;1.00
4813;DHT22;2420;51.202;8.698;2023-04-30T06:02:50;5.90;1.00
4813;DHT22;2420;51.202;8.698;2023-04-30T06:05:17;6.00;1.00
4813;DHT22;2420;51.202;8.698;2023-04-30T06:07:42;6.10;1.00
4813;DHT22;2420;51.202;8.698;2023-04-30T06:10:08;6.10;1.00
4813;DHT22;2420;51.202;8.698;2023-04-30T06:12:34;6.20;1.00
4813;DHT22;2420;51.202;8.698;2023-04-30T06:15:00;6.20;1.00
4813;DHT22;2420;51.202;8.698;2023-04-30T06:17:25;6.30;1.00
4813;DHT22;2420;51.202;8.698;2023-04-30T06:19:51;6.30;1.00
4813;DHT22;2420;51.202;8.698;2023-04-30T06:22:16;6.30;1.00
4813;DHT22;2420;51.202;8.698;2023-04-30T06:24:42;6.40;1.00
4813;DHT22;2420;51.202;8.698;2023-04-30T06:27:08;6.50;1.00
4813;DHT22;2420;51.202;8.698;2023-04-30T06:29:35;6.70;1.00
4813;DHT22;2420;51.202;8.698;2023-04-30T06:32:01;6.70;1.00
4813;DHT22;2420;51.202;8.698;2023-04-30T06:34:26;6.80;1.00
4813;DHT22;2420;51.202;8.698;2023-04-30T06:36:52;6.90;1.00
4813;DHT22;2420;51.202;8.698;2023-04-30T06:39:18;7.00;1.00
4813;DHT22;2420;51.202;8.698;2023-04-30T06:41:43;6.90;1.00
4813;DHT22;2420;51.202;8.698;2023-04-30T06:44:09;6.90;1.00
4813;DHT22;2420;51.202;8.698;2023-04-30T06:46:35;7.00;1.00
4813;DHT22;2420;51.202;8.698;2023-04-30T06:49:00;7.10;1.00
4813;DHT22;2420;51.202;8.698;2023-04-30T06:51:26;7.10;1.00
4813;DHT22;2420;51.202;8.698;2023-04-30T06:53:52;7.10;1.00
4813;DHT22;2420;51.202;8.698;2023-04-30T06:56:17;7.10;1.00
4813;DHT22;2420;51.202;8.698;2023-04-30T06:58:43;7.20;1.00
4813;DHT22;2420;51.202;8.698;2023-04-30T07:01:09;7.20;1.00
4813;DHT22;2420;51.202;8.698;2023-04-30T07:03:35;7.10;1.00
4813;DHT22;2420;51.202;8.698;2023-04-30T07:06:00;7.10;1.00
4813;DHT22;2420;51.202;8.698;2023-04-30T07:08:26;7.20;1.00
4813;DHT22;2420;51.202;8.698;2023-04-30T07:10:52;7.20;1.00
4813;DHT22;2420;51.202;8.698;2023-04-30T07:13:17;7.40;1.00
4813;DHT22;2420;51.202;8.698;2023-04-30T07:15:43;7.50;1.00
4813;DHT22;2420;51.202;8.698;2023-04-30T07:18:09;7.50;1.00
4813;DHT22;2420;51.202;8.698;2023-04-30T07:20:35;7.60;1.00
4813;DHT22;2420;51.202;8.698;2023-04-30T07:23:00;7.80;1.00
4813;DHT22;2420;51.202;8.698;2023-04-30T07:25:26;8.00;1.00
4813;DHT22;2420;51.202;8.698;2023-04-30T07:27:52;8.00;1.00
4813;DHT22;2420;51.202;8.698;2023-04-30T07:30:18;8.10;1.00
4813;DHT22;2420;51.202;8.698;2023-04-30T07:32:43;8.20;1.00
4813;DHT22;2420;51.202;8.698;2023-04-30T07:35:09;8.30;1.00
4813;DHT22;2420;51.202;8.698;2023-04-30T07:37:35;8.50;1.00
4813;DHT22;2420;51.202;8.698;2023-04-30T07:40:00;8.60;1.00
4813;DHT22;2420;51.202;8.698;2023-04-30T07:42:26;8.80;1.00
4813;DHT22;2420;51.202;8.698;2023-04-30T07:44:52;8.80;1.00
4813;DHT22;2420;51.202;8.698;2023-04-30T07:47:17;8.90;1.00
4813;DHT22;2420;51.202;8.698;2023-04-30T07:49:45;8.90;1.00
4813;DHT22;2420;51.202;8.698;2023-04-30T07:52:10;9.00;1.00
4813;DHT22;2420;51.202;8.698;2023-04-30T07:54:36;9.20;1.00
4813;DHT22;2420;51.202;8.698;2023-04-30T07:57:04;9.20;1.00
4813;DHT22;2420;51.202;8.698;2023-04-30T07:59:30;9.20;1.00
4813;DHT22;2420;51.202;8.698;2023-04-30T08:01:55;9.40;1.00
4813;DHT22;2420;51.202;8.698;2023-04-30T08:04:21;9.70;1.00
4813;DHT22;2420;51.202;8.698;2023-04-30T08:06:46;9.90;1.00
4813;DHT22;2420;51.202;8.698;2023-04-30T08:09:12;10.10;1.00
4813;DHT22;2420;51.202;8.698;2023-04-30T08:11:37;10.20;1.00
4813;DHT22;2420;51.202;8.698;2023-04-30T08:14:03;10.40;1.00
4813;DHT22;2420;51.202;8.698;2023-04-30T08:16:29;10.40;1.00
4813;DHT22;2420;51.202;8.698;2023-04-30T08:18:54;10.50;1.00
4813;DHT22;2420;51.202;8.698;2023-04-30T08:21:20;10.50;1.00
4813;DHT22;2420;51.202;8.698;2023-04-30T08:23:46;10.60;1.00
4813;DHT22;2420;51.202;8.698;2023-04-30T08:26:12;10.70;1.00
4813;DHT22;2420;51.202;8.698;2023-04-30T08:28:37;10.90;1.00
4813;DHT22;2420;51.202;8.698;2023-04-30T08:31:03;11.10;1.00
4813;DHT22;2420;51.202;8.698;2023-04-30T08:33:28;11.30;1.00
4813;DHT22;2420;51.202;8.698;2023-04-30T08:35:54;11.40;1.00
4813;DHT22;2420;51.202;8.698;2023-04-30T08:38:19;11.70;1.00
4813;DHT22;2420;51.202;8.698;2023-04-30T08:40:56;11.60;1.00
4813;DHT22;2420;51.202;8.698;2023-04-30T08:43:25;11.70;1.00
4813;DHT22;2420;51.202;8.698;2023-04-30T08:45:52;11.40;1.00
4813;DHT22;2420;51.202;8.698;2023-04-30T08:48:18;11.50;1.00
4813;DHT22;2420;51.202;8.698;2023-04-30T08:50:45;11.70;1.00
4813;DHT22;2420;51.202;8.698;2023-04-30T08:53:11;11.90;1.00
4813;DHT22;2420;51.202;8.698;2023-04-30T08:55:39;12.10;1.00
4813;DHT22;2420;51.202;8.698;2023-04-30T08:58:06;12.20;1.00
4813;DHT22;2420;51.202;8.698;2023-04-30T09:03:00;12.30;1.00
4813;DHT22;2420;51.202;8.698;2023-04-30T09:05:26;13.00;1.00
4813;DHT22;2420;51.202;8.698;2023-04-30T09:07:51;12.80;1.00
4813;DHT22;2420;51.202;8.698;2023-04-30T09:10:19;12.90;1.00
4813;DHT22;2420;51.202;8.698;2023-04-30T09:13:01;13.00;1.00
4813;DHT22;2420;51.202;8.698;2023-04-30T09:15:28;12.90;1.00
4813;DHT22;2420;51.202;8.698;2023-04-30T09:20:33;13.20;1.00
4813;DHT22;2420;51.202;8.698;2023-04-30T09:23:10;13.10;1.00
4813;DHT22;2420;51.202;8.698;2023-04-30T09:25:42;13.30;1.00
4813;DHT22;2420;51.202;8.698;2023-04-30T09:28:09;13.30;1.00
4813;DHT22;2420;51.202;8.698;2023-04-30T09:30:35;13.30;1.00
4813;DHT22;2420;51.202;8.698;2023-04-30T09:33:01;13.20;1.00
4813;DHT22;2420;51.202;8.698;2023-04-30T09:35:35;12.90;1.00
4813;DHT22;2420;51.202;8.698;2023-04-30T09:38:01;13.00;1.00
4813;DHT22;2420;51.202;8.698;2023-04-30T09:40:38;13.20;1.00
4813;DHT22;2420;51.202;8.698;2023-04-30T09:43:07;13.50;1.00
4813;DHT22;2420;51.202;8.698;2023-04-30T09:48:07;13.60;1.00
4813;DHT22;2420;51.202;8.698;2023-04-30T09:50:40;13.70;1.00
4813;DHT22;2420;51.202;8.698;2023-04-30T09:53:07;13.80;1.00
4813;DHT22;2420;51.202;8.698;2023-04-30T09:55:38;13.90;1.00
4813;DHT22;2420;51.202;8.698;2023-04-30T10:20:23;14.00;1.00
4813;DHT22;2420;51.202;8.698;2023-04-30T10:22:50;14.60;1.00
4813;DHT22;2420;51.202;8.698;2023-04-30T10:57:40;14.70;1.00
4813;DHT22;2420;51.202;8.698;2023-04-30T11:02:42;15.60;1.00
4813;DHT22;2420;51.202;8.698;2023-04-30T11:12:47;15.50;1.00
4813;DHT22;2420;51.202;8.698;2023-04-30T11:15:15;15.10;1.00
4813;DHT22;2420;51.202;8.698;2023-04-30T11:17:46;15.40;1.00
4813;DHT22;2420;51.202;8.698;2023-04-30T11:20:13;14.90;1.00
4813;DHT22;2420;51.202;8.698;2023-04-30T11:22:39;15.10;1.00
4813;DHT22;2420;51.202;8.698;2023-04-30T11:27:36;15.00;1.00
4813;DHT22;2420;51.202;8.698;2023-04-30T11:30:08;15.00;1.00
4813;DHT22;2420;51.202;8.698;2023-04-30T11:32:36;15.20;1.00
4813;DHT22;2420;51.202;8.698;2023-04-30T11:35:03;15.10;1.00
4813;DHT22;2420;51.202;8.698;2023-04-30T11:37:41;15.00;1.00
4813;DHT22;2420;51.202;8.698;2023-04-30T11:40:11;14.70;1.00
4813;DHT22;2420;51.202;8.698;2023-04-30T11:42:39;14.90;1.00
4813;DHT22;2420;51.202;8.698;2023-04-30T11:45:12;14.80;1.00
4813;DHT22;2420;51.202;8.698;2023-04-30T11:48:04;15.00;1.00
4813;DHT22;2420;51.202;8.698;2023-04-30T11:50:32;15.10;1.00
4813;DHT22;2420;51.202;8.698;2023-04-30T11:52:59;15.30;1.00
4813;DHT22;2420;51.202;8.698;2023-04-30T11:55:29;15.50;1.00
4813;DHT22;2420;51.202;8.698;2023-04-30T11:57:56;15.30;1.00
4813;DHT22;2420;51.202;8.698;2023-04-30T12:00:27;14.90;1.00
4813;DHT22;2420;51.202;8.698;2023-04-30T12:02:53;15.10;1.00
4813;DHT22;2420;51.202;8.698;2023-04-30T12:05:24;15.40;1.00
4813;DHT22;2420;51.202;8.698;2023-04-30T12:08:01;15.60;1.00
4813;DHT22;2420;51.202;8.698;2023-04-30T12:10:32;15.10;1.00
4813;DHT22;2420;51.202;8.698;2023-04-30T12:12:58;14.80;1.00
4813;DHT22;2420;51.202;8.698;2023-04-30T12:15:24;14.60;1.00
4813;DHT22;2420;51.202;8.698;2023-04-30T12:17:52;14.70;1.00
4813;DHT22;2420;51.202;8.698;2023-04-30T12:20:19;14.60;1.00
4813;DHT22;2420;51.202;8.698;2023-04-30T12:22:46;14.60;1.00
4813;DHT22;2420;51.202;8.698;2023-04-30T12:25:19;14.80;1.00
4813;DHT22;2420;51.202;8.698;2023-04-30T12:27:46;14.80;1.00
4813;DHT22;2420;51.202;8.698;2023-04-30T12:30:12;15.00;1.00
4813;DHT22;2420;51.202;8.698;2023-04-30T12:32:39;15.40;1.00
4813;DHT22;2420;51.202;8.698;2023-04-30T12:35:06;15.10;1.00
4813;DHT22;2420;51.202;8.698;2023-04-30T12:37:32;15.20;1.00
4813;DHT22;2420;51.202;8.698;2023-04-30T12:44:50;15.30;1.00
4813;DHT22;2420;51.202;8.698;2023-04-30T12:47:17;16.00;1.00
4813;DHT22;2420;51.202;8.698;2023-04-30T12:52:13;15.90;1.00
4813;DHT22;2420;51.202;8.698;2023-04-30T12:54:40;15.80;1.00
4813;DHT22;2420;51.202;8.698;2023-04-30T12:57:10;15.80;1.00
4813;DHT22;2420;51.202;8.698;2023-04-30T13:02:14;15.60;1.00
4813;DHT22;2420;51.202;8.698;2023-04-30T13:04:40;15.70;1.00
4813;DHT22;2420;51.202;8.698;2023-04-30T13:07:06;15.70;1.00
4813;DHT22;2420;51.202;8.698;2023-04-30T13:09:33;15.60;1.00
4813;DHT22;2420;51.202;8.698;2023-04-30T13:11:59;15.80;1.00
4813;DHT22;2420;51.202;8.698;2023-04-30T13:14:25;15.80;1.00
4813;DHT22;2420;51.202;8.698;2023-04-30T13:16:51;15.70;1.00
4813;DHT22;2420;51.202;8.698;2023-04-30T13:19:18;15.60;1.00
4813;DHT22;2420;51.202;8.698;2023-04-30T13:21:44;15.70;1.00
4813;DHT22;2420;51.202;8.698;2023-04-30T13:24:09;15.80;1.00
4813;DHT22;2420;51.202;8.698;2023-04-30T13:26:35;15.70;1.00
4813;DHT22;2420;51.202;8.698;2023-04-30T13:29:00;15.60;1.00
4813;DHT22;2420;51.202;8.698;2023-04-30T13:31:27;15.50;1.00
4813;DHT22;2420;51.202;8.698;2023-04-30T13:33:52;15.40;1.00
4813;DHT22;2420;51.202;8.698;2023-04-30T13:36:19;15.60;1.00
4813;DHT22;2420;51.202;8.698;2023-04-30T13:38:45;15.50;1.00
4813;DHT22;2420;51.202;8.698;2023-04-30T13:41:11;15.70;1.00
4813;DHT22;2420;51.202;8.698;2023-04-30T13:43:37;15.80;1.00
4813;DHT22;2420;51.202;8.698;2023-04-30T13:46:04;15.80;1.00
4813;DHT22;2420;51.202;8.698;2023-04-30T13:48:29;15.60;1.00
4813;DHT22;2420;51.202;8.698;2023-04-30T13:50:55;15.90;1.00
4813;DHT22;2420;51.202;8.698;2023-04-30T13:53:20;15.80;1.00
4813;DHT22;2420;51.202;8.698;2023-04-30T13:55:47;15.80;1.00
4813;DHT22;2420;51.202;8.698;2023-04-30T13:58:12;16.00;1.00
4813;DHT22;2420;51.202;8.698;2023-04-30T14:00:38;16.00;1.00
4813;DHT22;2420;51.202;8.698;2023-04-30T14:03:04;15.80;1.00
4813;DHT22;2420;51.202;8.698;2023-04-30T14:05:29;15.70;1.00
4813;DHT22;2420;51.202;8.698;2023-04-30T14:07:55;15.80;1.00
4813;DHT22;2420;51.202;8.698;2023-04-30T14:10:20;15.80;1.00
4813;DHT22;2420;51.202;8.698;2023-04-30T14:12:46;15.90;1.00
4813;DHT22;2420;51.202;8.698;2023-04-30T14:15:14;15.90;1.00
4813;DHT22;2420;51.202;8.698;2023-04-30T14:17:40;15.80;1.00
4813;DHT22;2420;51.202;8.698;2023-04-30T14:20:06;15.90;1.00
4813;DHT22;2420;51.202;8.698;2023-04-30T14:22:32;16.00;1.00
4813;DHT22;2420;51.202;8.698;2023-04-30T14:25:00;16.10;1.00
4813;DHT22;2420;51.202;8.698;2023-04-30T14:27:25;16.30;1.00
4813;DHT22;2420;51.202;8.698;2023-04-30T14:29:51;16.20;1.00
4813;DHT22;2420;51.202;8.698;2023-04-30T14:32:17;16.10;1.00
4813;DHT22;2420;51.202;8.698;2023-04-30T14:34:42;15.90;1.00
4813;DHT22;2420;51.202;8.698;2023-04-30T14:37:09;15.90;1.00
4813;DHT22;2420;51.202;8.698;2023-04-30T14:39:34;15.90;1.00
4813;DHT22;2420;51.202;8.698;2023-04-30T14:42:00;15.90;1.00
4813;DHT22;2420;51.202;8.698;2023-04-30T14:44:26;16.00;1.00
4813;DHT22;2420;51.202;8.698;2023-04-30T14:46:52;16.00;1.00
4813;DHT22;2420;51.202;8.698;2023-04-30T14:49:17;16.10;1.00
4813;DHT22;2420;51.202;8.698;2023-04-30T14:51:43;15.90;1.00
4813;DHT22;2420;51.202;8.698;2023-04-30T14:54:08;16.00;1.00
4813;DHT22;2420;51.202;8.698;2023-04-30T14:56:35;15.80;1.00
4813;DHT22;2420;51.202;8.698;2023-04-30T14:59:00;15.80;1.00
4813;DHT22;2420;51.202;8.698;2023-04-30T15:01:26;15.50;1.00
4813;DHT22;2420;51.202;8.698;2023-04-30T15:03:52;15.40;1.00
4813;DHT22;2420;51.202;8.698;2023-04-30T15:06:18;15.60;1.00
4813;DHT22;2420;51.202;8.698;2023-04-30T15:08:43;15.60;1.00
4813;DHT22;2420;51.202;8.698;2023-04-30T15:11:09;15.40;1.00
4813;DHT22;2420;51.202;8.698;2023-04-30T15:13:36;15.30;1.00
4813;DHT22;2420;51.202;8.698;2023-04-30T15:16:01;15.30;1.00
4813;DHT22;2420;51.202;8.698;2023-04-30T15:18:27;15.50;1.00
4813;DHT22;2420;51.202;8.698;2023-04-30T15:20:53;15.50;1.00
4813;DHT22;2420;51.202;8.698;2023-04-30T15:23:19;15.40;1.00
4813;DHT22;2420;51.202;8.698;2023-04-30T15:25:45;15.40;1.00
4813;DHT22;2420;51.202;8.698;2023-04-30T15:28:11;15.30;1.00
4813;DHT22;2420;51.202;8.698;2023-04-30T15:30:37;15.20;1.00
4813;DHT22;2420;51.202;8.698;2023-04-30T15:33:02;15.20;1.00
4813;DHT22;2420;51.202;8.698;2023-04-30T15:35:28;15.20;1.00
4813;DHT22;2420;51.202;8.698;2023-04-30T15:37:54;15.10;1.00
4813;DHT22;2420;51.202;8.698;2023-04-30T15:40:19;15.10;1.00
4813;DHT22;2420;51.202;8.698;2023-04-30T15:42:45;15.10;1.00
4813;DHT22;2420;51.202;8.698;2023-04-30T15:45:11;15.10;1.00
4813;DHT22;2420;51.202;8.698;2023-04-30T15:47:37;15.10;1.00
4813;DHT22;2420;51.202;8.698;2023-04-30T15:50:03;15.10;1.00
4813;DHT22;2420;51.202;8.698;2023-04-30T15:52:29;15.20;1.00
4813;DHT22;2420;51.202;8.698;2023-04-30T15:54:54;15.10;1.00
4813;DHT22;2420;51.202;8.698;2023-04-30T15:57:20;14.90;1.00
4813;DHT22;2420;51.202;8.698;2023-04-30T15:59:45;14.80;1.00
4813;DHT22;2420;51.202;8.698;2023-04-30T16:02:11;14.70;1.00
4813;DHT22;2420;51.202;8.698;2023-04-30T16:04:37;14.70;1.00
4813;DHT22;2420;51.202;8.698;2023-04-30T16:07:03;14.80;1.00
4813;DHT22;2420;51.202;8.698;2023-04-30T16:09:29;14.90;1.00
4813;DHT22;2420;51.202;8.698;2023-04-30T16:11:55;14.90;1.00
4813;DHT22;2420;51.202;8.698;2023-04-30T16:14:21;14.90;1.00
4813;DHT22;2420;51.202;8.698;2023-04-30T16:16:47;14.90;1.00
4813;DHT22;2420;51.202;8.698;2023-04-30T16:19:12;14.70;1.00
4813;DHT22;2420;51.202;8.698;2023-04-30T16:21:39;14.70;1.00
4813;DHT22;2420;51.202;8.698;2023-04-30T16:24:05;14.80;1.00
4813;DHT22;2420;51.202;8.698;2023-04-30T16:26:31;14.70;1.00
4813;DHT22;2420;51.202;8.698;2023-04-30T16:28:59;14.70;1.00
4813;DHT22;2420;51.202;8.698;2023-04-30T16:31:25;14.70;1.00
4813;DHT22;2420;51.202;8.698;2023-04-30T16:33:50;14.70;1.00
4813;DHT22;2420;51.202;8.698;2023-04-30T16:36:16;14.70;1.00
4813;DHT22;2420;51.202;8.698;2023-04-30T16:38:41;14.70;1.00
4813;DHT22;2420;51.202;8.698;2023-04-30T16:41:08;14.70;1.00
4813;DHT22;2420;51.202;8.698;2023-04-30T16:43:34;14.70;1.00
4813;DHT22;2420;51.202;8.698;2023-04-30T16:45:59;14.60;1.00
4813;DHT22;2420;51.202;8.698;2023-04-30T16:48:25;14.50;1.00
4813;DHT22;2420;51.202;8.698;2023-04-30T16:50:50;14.40;1.00
4813;DHT22;2420;51.202;8.698;2023-04-30T16:53:16;14.40;1.00
4813;DHT22;2420;51.202;8.698;2023-04-30T16:55:42;14.30;1.00
4813;DHT22;2420;51.202;8.698;2023-04-30T16:58:07;14.30;1.00
4813;DHT22;2420;51.202;8.698;2023-04-30T17:00:35;14.30;1.00
4813;DHT22;2420;51.202;8.698;2023-04-30T17:03:07;14.30;1.00
4813;DHT22;2420;51.202;8.698;2023-04-30T17:05:34;14.30;1.00
4813;DHT22;2420;51.202;8.698;2023-04-30T17:07:59;14.30;1.00
4813;DHT22;2420;51.202;8.698;2023-04-30T17:10:25;14.30;1.00
4813;DHT22;2420;51.202;8.698;2023-04-30T17:12:51;14.30;1.00
4813;DHT22;2420;51.202;8.698;2023-04-30T17:15:17;14.20;1.00
4813;DHT22;2420;51.202;8.698;2023-04-30T17:17:44;14.20;1.00
4813;DHT22;2420;51.202;8.698;2023-04-30T17:20:10;14.10;1.00
4813;DHT22;2420;51.202;8.698;2023-04-30T17:22:37;14.10;1.00
4813;DHT22;2420;51.202;8.698;2023-04-30T17:25:03;14.00;1.00
4813;DHT22;2420;51.202;8.698;2023-04-30T17:27:29;14.00;1.00
4813;DHT22;2420;51.202;8.698;2023-04-30T17:29:54;13.90;1.00
4813;DHT22;2420;51.202;8.698;2023-04-30T17:32:20;13.80;1.00
4813;DHT22;2420;51.202;8.698;2023-04-30T17:34:46;13.80;1.00
4813;DHT22;2420;51.202;8.698;2023-04-30T17:37:11;13.70;1.00
4813;DHT22;2420;51.202;8.698;2023-04-30T17:39:37;13.70;1.00
4813;DHT22;2420;51.202;8.698;2023-04-30T17:42:02;13.60;1.00
4813;DHT22;2420;51.202;8.698;2023-04-30T17:44:28;13.60;1.00
4813;DHT22;2420;51.202;8.698;2023-04-30T17:46:55;13.60;1.00
4813;DHT22;2420;51.202;8.698;2023-04-30T17:49:21;13.50;1.00
4813;DHT22;2420;51.202;8.698;2023-04-30T17:51:47;13.40;1.00
4813;DHT22;2420;51.202;8.698;2023-04-30T17:54:12;13.30;1.00
4813;DHT22;2420;51.202;8.698;2023-04-30T17:56:38;13.30;1.00